createdAt,value
2022-07-29T00:00:28.551Z,18.83
2022-07-29T00:03:04.628Z,17.60
2022-07-29T00:05:32.948Z,18.85
2022-07-29T00:08:00.700Z,17.85
2022-07-29T00:10:28.712Z,19.10
2022-07-29T00:12:56.686Z,18.60
2022-07-29T00:15:24.522Z,16.83
2022-07-29T00:17:52.627Z,16.95
2022-07-29T00:20:21.074Z,17.25
2022-07-29T00:22:48.791Z,16.50
2022-07-29T00:25:17.715Z,15.38
2022-07-29T00:27:47.370Z,15.85
2022-07-29T00:30:15.864Z,14.27
2022-07-29T00:32:43.993Z,16.13
2022-07-29T00:35:31.243Z,14.70
2022-07-29T00:37:59.208Z,14.18
2022-07-29T00:40:27.298Z,18.20
2022-07-29T00:42:55.224Z,20.80
2022-07-29T00:45:23.547Z,16.08
2022-07-29T00:47:52.777Z,14.70
2022-07-29T00:50:20.752Z,14.50
2022-07-29T00:52:49.110Z,15.95
2022-07-29T00:55:17.596Z,20.33
2022-07-29T00:57:46.465Z,16.13
2022-07-29T01:00:18.719Z,15.70
2022-07-29T01:02:51.151Z,15.07
2022-07-29T01:05:24.806Z,16.17
2022-07-29T01:07:55.326Z,16.05
2022-07-29T01:10:25.027Z,16.02
2022-07-29T01:12:55.320Z,13.90
2022-07-29T01:15:23.934Z,14.43
2022-07-29T01:18:14.972Z,14.98
2022-07-29T01:21:08.079Z,15.02
2022-07-29T01:24:00.759Z,15.18
2022-07-29T01:26:49.533Z,13.13
2022-07-29T01:29:35.819Z,13.10
2022-07-29T01:32:20.307Z,15.45
2022-07-29T01:35:20.341Z,14.95
2022-07-29T01:38:26.614Z,14.95
2022-07-29T01:41:00.218Z,14.70
2022-07-29T01:43:41.749Z,14.63
2022-07-29T01:46:15.333Z,17.95
2022-07-29T01:48:56.512Z,16.33
2022-07-29T01:51:39.646Z,18.25
2022-07-29T01:54:17.919Z,18.10
2022-07-29T01:56:49.957Z,17.00
2022-07-29T01:59:20.152Z,17.17
2022-07-29T02:01:51.759Z,17.05
2022-07-29T02:04:29.266Z,21.17
2022-07-29T02:07:03.169Z,17.43
2022-07-29T02:09:33.074Z,18.77
2022-07-29T02:12:02.672Z,16.20
2022-07-29T02:14:35.628Z,16.48
2022-07-29T02:17:04.214Z,15.30
2022-07-29T02:19:34.571Z,18.77
2022-07-29T02:22:03.540Z,16.45
2022-07-29T02:24:32.442Z,18.85
2022-07-29T02:27:02.258Z,18.48
2022-07-29T02:29:32.726Z,19.95
2022-07-29T02:32:02.439Z,18.70
2022-07-29T02:34:31.490Z,17.88
2022-07-29T02:37:00.477Z,16.23
2022-07-29T02:39:31.333Z,16.83
2022-07-29T02:42:05.045Z,17.48
2022-07-29T02:44:35.690Z,17.73
2022-07-29T02:47:15.003Z,17.23
2022-07-29T02:49:48.659Z,18.35
2022-07-29T02:52:45.138Z,18.10
2022-07-29T02:55:35.530Z,21.02
2022-07-29T02:58:09.577Z,18.30
2022-07-29T03:00:41.001Z,18.05
2022-07-29T03:03:14.163Z,16.23
2022-07-29T03:05:42.741Z,17.83
2022-07-29T03:08:12.946Z,19.65
2022-07-29T03:10:44.301Z,14.87
2022-07-29T03:13:14.457Z,21.13
2022-07-29T03:15:45.244Z,20.65
2022-07-29T03:18:14.313Z,18.45
2022-07-29T03:20:42.272Z,16.25
2022-07-29T03:23:10.542Z,16.20
2022-07-29T03:25:39.099Z,18.60
2022-07-29T03:28:06.947Z,28.52
2022-07-29T03:30:34.853Z,18.45
2022-07-29T03:33:02.992Z,23.35
2022-07-29T03:35:42.408Z,21.70
2022-07-29T03:38:10.434Z,19.13
2022-07-29T03:40:50.384Z,17.42
2022-07-29T03:43:19.820Z,17.92
2022-07-29T03:45:51.322Z,17.98
2022-07-29T03:48:23.350Z,17.10
2022-07-29T03:50:52.407Z,16.50
2022-07-29T03:53:20.481Z,16.55
2022-07-29T03:55:55.750Z,15.57
2022-07-29T03:58:26.997Z,19.83
2022-07-29T04:00:56.449Z,15.30
2022-07-29T04:03:24.463Z,14.07
2022-07-29T04:06:07.462Z,16.42
2022-07-29T04:08:36.018Z,14.07
2022-07-29T04:11:05.046Z,15.38
2022-07-29T04:13:33.789Z,16.73
2022-07-29T04:16:01.571Z,17.63
2022-07-29T04:18:29.910Z,19.23
2022-07-29T04:21:00.471Z,22.85
2022-07-29T04:23:33.752Z,18.17
2022-07-29T04:26:02.540Z,28.00
2022-07-29T04:28:30.324Z,27.88
2022-07-29T04:30:58.245Z,37.03
2022-07-29T04:33:26.455Z,28.70
2022-07-29T04:35:55.019Z,24.75
2022-07-29T04:38:23.711Z,18.30
2022-07-29T04:40:51.807Z,17.75
2022-07-29T04:43:22.569Z,17.52
2022-07-29T04:45:51.725Z,16.63
2022-07-29T04:48:21.229Z,17.25
2022-07-29T04:50:52.448Z,20.13
2022-07-29T04:53:20.195Z,16.90
2022-07-29T04:55:48.548Z,19.90
2022-07-29T04:58:16.795Z,17.48
2022-07-29T05:00:44.921Z,17.35
2022-07-29T05:03:13.110Z,19.43
2022-07-29T05:05:42.168Z,20.40
2022-07-29T05:08:09.983Z,20.02
2022-07-29T05:10:39.441Z,18.98
2022-07-29T05:13:08.295Z,19.90
2022-07-29T05:15:36.723Z,23.87
2022-07-29T05:18:05.923Z,19.65
2022-07-29T05:20:35.547Z,20.75
2022-07-29T05:23:04.379Z,21.15
2022-07-29T05:25:44.251Z,23.13
2022-07-29T05:28:13.395Z,22.37
2022-07-29T05:30:43.726Z,19.63
2022-07-29T05:33:34.326Z,50.53
2022-07-29T05:36:50.294Z,25.95
2022-07-29T05:39:18.241Z,29.83
2022-07-29T05:41:51.586Z,24.50
2022-07-29T05:44:19.981Z,25.58
2022-07-29T05:46:48.053Z,22.50
2022-07-29T05:49:26.829Z,21.98
2022-07-29T05:56:21.035Z,23.27
2022-07-29T05:58:49.580Z,21.77
2022-07-29T06:01:17.566Z,21.58
2022-07-29T06:03:45.815Z,19.10
2022-07-29T06:06:14.003Z,19.85
2022-07-29T06:08:42.739Z,17.57
2022-07-29T06:11:10.682Z,19.75
2022-07-29T06:13:38.915Z,15.60
2022-07-29T06:16:06.784Z,16.00
2022-07-29T06:18:34.771Z,15.82
2022-07-29T06:21:02.793Z,15.63
2022-07-29T06:23:30.660Z,17.85
2022-07-29T06:25:58.497Z,21.20
2022-07-29T06:28:27.489Z,16.58
2022-07-29T06:30:55.389Z,15.10
2022-07-29T06:33:23.431Z,13.60
2022-07-29T06:35:54.945Z,13.73
2022-07-29T06:38:31.594Z,15.60
2022-07-29T06:41:07.219Z,17.58
2022-07-29T06:43:51.773Z,13.25
2022-07-29T06:46:23.681Z,13.27
2022-07-29T06:48:53.038Z,14.70
2022-07-29T06:51:23.936Z,12.88
2022-07-29T06:54:00.305Z,12.55
2022-07-29T06:56:40.423Z,17.60
2022-07-29T06:59:10.656Z,12.63
2022-07-29T07:01:41.552Z,11.98
2022-07-29T07:04:11.043Z,13.90
2022-07-29T07:06:39.620Z,12.88
2022-07-29T07:09:07.823Z,12.32
2022-07-29T07:11:36.226Z,11.67
2022-07-29T07:14:04.550Z,12.93
2022-07-29T07:16:33.297Z,10.70
2022-07-29T07:19:01.791Z,12.68
2022-07-29T07:21:30.582Z,29.45
2022-07-29T07:24:00.217Z,14.00
2022-07-29T07:26:28.659Z,20.25
2022-07-29T07:28:56.643Z,11.73
2022-07-29T07:31:24.542Z,12.25
2022-07-29T07:33:54.683Z,14.75
2022-07-29T07:36:23.282Z,11.57
2022-07-29T07:38:51.106Z,13.15
2022-07-29T07:41:23.076Z,18.27
2022-07-29T07:43:53.541Z,11.70
2022-07-29T07:46:27.954Z,11.80
2022-07-29T07:48:56.314Z,13.23
2022-07-29T07:51:25.155Z,10.98
2022-07-29T07:53:54.578Z,14.65
2022-07-29T07:56:23.296Z,14.07
2022-07-29T08:13:31.657Z,10.90
2022-07-29T08:16:02.951Z,11.98
2022-07-29T08:22:18.886Z,13.97
2022-07-29T08:24:59.274Z,11.93
2022-07-29T08:27:43.447Z,12.23
2022-07-29T08:30:12.970Z,14.65
2022-07-29T08:32:53.692Z,11.10
2022-07-29T08:35:24.931Z,11.93
2022-07-29T08:37:56.149Z,12.65
2022-07-29T08:40:30.790Z,16.27
2022-07-29T08:43:06.763Z,11.85
2022-07-29T08:45:52.324Z,15.18
2022-07-29T08:48:25.126Z,10.70
2022-07-29T08:50:57.961Z,13.68
2022-07-29T08:53:28.388Z,15.60
2022-07-29T08:55:57.513Z,13.05
2022-07-29T08:58:27.225Z,14.25
2022-07-29T09:00:58.166Z,11.10
2022-07-29T09:03:28.938Z,10.88
2022-07-29T09:05:57.430Z,11.02
2022-07-29T09:08:25.522Z,12.32
2022-07-29T09:10:53.717Z,12.95
2022-07-29T09:13:22.037Z,12.03
2022-07-29T09:15:50.303Z,10.50
2022-07-29T09:18:50.857Z,11.23
2022-07-29T09:21:38.547Z,10.00
2022-07-29T09:24:10.888Z,11.70
2022-07-29T09:26:47.464Z,8.57
2022-07-29T09:29:17.799Z,12.20
2022-07-29T09:31:51.354Z,10.90
2022-07-29T09:34:33.006Z,11.45
2022-07-29T09:37:02.404Z,11.05
2022-07-29T09:39:45.692Z,10.00
2022-07-29T09:42:15.902Z,9.30
2022-07-29T09:44:50.161Z,12.52
2022-07-29T09:47:20.424Z,9.70
2022-07-29T09:50:01.288Z,9.63
2022-07-29T09:52:31.855Z,18.30
2022-07-29T09:55:17.819Z,9.45
2022-07-29T09:57:48.766Z,10.32
2022-07-29T10:00:20.142Z,10.20
2022-07-29T10:02:49.038Z,8.90
2022-07-29T10:05:25.382Z,7.70
2022-07-29T10:07:57.067Z,9.15
2022-07-29T10:10:28.306Z,10.13
2022-07-29T10:13:01.789Z,10.50
2022-07-29T10:15:38.360Z,13.20
2022-07-29T10:18:08.394Z,7.63
2022-07-29T10:20:37.256Z,9.10
2022-07-29T10:23:05.918Z,8.50
2022-07-29T10:25:35.076Z,8.57
2022-07-29T10:28:03.066Z,9.60
2022-07-29T10:30:32.354Z,8.40
2022-07-29T10:33:28.065Z,7.40
2022-07-29T10:36:09.312Z,9.55
2022-07-29T10:39:07.865Z,8.98
2022-07-29T10:41:48.185Z,10.50
2022-07-29T10:44:24.051Z,9.67
2022-07-29T10:46:53.514Z,8.23
2022-07-29T10:49:26.256Z,16.05
2022-07-29T10:52:07.442Z,9.48
2022-07-29T10:54:44.446Z,9.27
2022-07-29T10:57:25.716Z,7.80
2022-07-29T11:00:16.871Z,8.45
2022-07-29T11:02:50.519Z,7.68
2022-07-29T11:05:22.798Z,11.10
2022-07-29T11:08:20.278Z,7.82
2022-07-29T11:10:51.180Z,8.13
2022-07-29T11:13:52.372Z,8.07
2022-07-29T11:16:25.897Z,7.75
2022-07-29T11:19:13.142Z,9.30
2022-07-29T11:21:55.011Z,10.52
2022-07-29T11:24:35.761Z,10.17
2022-07-29T11:27:21.622Z,9.88
2022-07-29T11:29:55.972Z,9.27
2022-07-29T11:32:29.207Z,8.02
2022-07-29T11:35:18.668Z,9.13
2022-07-29T11:37:52.323Z,19.70
2022-07-29T11:40:24.133Z,17.90
2022-07-29T11:42:53.564Z,15.23
2022-07-29T11:45:44.953Z,9.65
2022-07-29T11:48:29.316Z,11.13
2022-07-29T11:51:01.079Z,8.27
2022-07-29T11:53:33.108Z,8.70
2022-07-29T11:56:03.609Z,8.15
2022-07-29T11:58:33.335Z,8.00
2022-07-29T12:01:04.863Z,9.55
2022-07-29T12:03:36.913Z,10.30
2022-07-29T12:06:17.606Z,10.02
2022-07-29T12:08:47.811Z,8.10
2022-07-29T12:11:23.239Z,11.07
2022-07-29T12:13:54.106Z,9.73
2022-07-29T12:16:25.518Z,9.90
2022-07-29T12:19:04.457Z,7.72
2022-07-29T12:22:02.524Z,7.25
2022-07-29T12:24:45.757Z,8.90
2022-07-29T12:27:19.555Z,8.80
2022-07-29T12:30:03.999Z,9.80
2022-07-29T12:32:38.364Z,9.85
2022-07-29T12:35:16.973Z,7.53
2022-07-29T12:37:49.556Z,7.40
2022-07-29T12:40:19.767Z,9.75
2022-07-29T12:43:11.002Z,7.80
2022-07-29T12:48:43.399Z,8.88
2022-07-29T12:51:15.670Z,7.60
2022-07-29T12:54:11.917Z,8.90
2022-07-29T12:56:46.946Z,7.80
2022-07-29T12:59:24.322Z,7.82
2022-07-29T13:01:54.126Z,9.15
2022-07-29T13:04:34.281Z,10.55
2022-07-29T13:07:08.579Z,11.77
2022-07-29T13:09:46.997Z,7.70
2022-07-29T13:12:16.137Z,8.10
2022-07-29T13:14:47.978Z,8.50
2022-07-29T13:17:25.500Z,10.13
2022-07-29T13:20:08.639Z,14.50
2022-07-29T13:22:37.620Z,10.07
2022-07-29T13:25:08.039Z,7.78
2022-07-29T13:27:41.183Z,7.68
2022-07-29T13:30:12.278Z,8.48
2022-07-29T13:32:40.829Z,7.75
2022-07-29T13:35:09.958Z,10.93
2022-07-29T13:37:39.925Z,10.65
2022-07-29T13:40:12.034Z,7.45
2022-07-29T13:42:41.172Z,7.78
2022-07-29T13:45:10.370Z,13.73
2022-07-29T13:47:39.051Z,15.37
2022-07-29T13:50:09.220Z,10.48
2022-07-29T13:52:37.305Z,8.35
2022-07-29T13:55:06.214Z,11.15
2022-07-29T13:57:34.603Z,8.43
2022-07-29T14:00:02.454Z,8.83
2022-07-29T14:02:36.361Z,9.35
2022-07-29T14:05:08.316Z,7.32
2022-07-29T14:07:37.577Z,8.27
2022-07-29T14:10:05.825Z,7.50
2022-07-29T14:12:34.940Z,9.83
2022-07-29T14:15:03.030Z,7.95
2022-07-29T14:17:30.916Z,8.48
2022-07-29T14:19:58.598Z,8.23
2022-07-29T14:22:27.027Z,9.25
2022-07-29T14:24:54.827Z,9.63
2022-07-29T14:27:37.893Z,7.72
2022-07-29T14:30:08.200Z,9.13
2022-07-29T14:32:36.489Z,7.50
2022-07-29T14:35:05.092Z,10.02
2022-07-29T14:37:39.750Z,8.47
2022-07-29T14:40:09.956Z,15.13
2022-07-29T14:42:40.606Z,8.70
2022-07-29T14:45:11.981Z,14.18
2022-07-29T14:47:40.730Z,8.32
2022-07-29T14:50:09.476Z,13.57
2022-07-29T14:52:37.728Z,9.15
2022-07-29T14:55:19.910Z,10.90
2022-07-29T14:57:48.779Z,10.57
2022-07-29T15:00:17.488Z,9.23
2022-07-29T15:03:01.246Z,10.23
2022-07-29T15:05:31.362Z,10.55
2022-07-29T15:08:00.161Z,8.95
2022-07-29T15:10:28.512Z,10.43
2022-07-29T15:12:58.394Z,9.02
2022-07-29T15:15:27.126Z,12.97
2022-07-29T15:17:55.230Z,11.55
2022-07-29T15:20:26.558Z,13.02
2022-07-29T15:22:56.731Z,11.20
2022-07-29T15:25:25.635Z,11.32
2022-07-29T15:28:00.977Z,10.17
2022-07-29T15:30:34.458Z,13.02
2022-07-29T15:33:05.800Z,11.75
2022-07-29T15:35:40.330Z,11.85
2022-07-29T15:38:08.974Z,8.20
2022-07-29T15:40:39.918Z,12.10
2022-07-29T15:43:07.947Z,10.45
2022-07-29T15:45:40.700Z,12.45
2022-07-29T15:48:14.582Z,10.77
2022-07-29T15:50:43.246Z,11.00
2022-07-29T15:53:15.624Z,17.57
2022-07-29T15:55:44.383Z,10.85
2022-07-29T15:58:12.452Z,14.50
2022-07-29T16:00:40.668Z,11.40
2022-07-29T16:03:08.889Z,10.48
2022-07-29T16:05:36.911Z,10.10
2022-07-29T16:08:06.403Z,13.95
2022-07-29T16:10:34.464Z,11.02
2022-07-29T16:13:02.402Z,10.40
2022-07-29T16:15:30.466Z,14.45
2022-07-29T16:17:58.458Z,13.03
2022-07-29T16:20:26.139Z,12.05
2022-07-29T16:22:56.795Z,9.48
2022-07-29T16:25:50.001Z,11.00
2022-07-29T16:28:14.850Z,12.45
2022-07-29T16:30:42.778Z,9.97
2022-07-29T16:33:10.965Z,10.30
2022-07-29T16:35:40.723Z,11.80
2022-07-29T16:38:08.664Z,12.70
2022-07-29T16:40:36.505Z,10.30
2022-07-29T16:43:04.869Z,15.17
2022-07-29T16:45:44.409Z,16.30
2022-07-29T16:48:18.009Z,14.48
2022-07-29T16:50:47.819Z,12.10
2022-07-29T16:53:16.472Z,14.45
2022-07-29T16:55:44.831Z,13.40
2022-07-29T16:58:12.676Z,14.35
2022-07-29T17:00:42.279Z,12.18
2022-07-29T17:03:10.602Z,16.50
2022-07-29T17:05:52.623Z,15.73
2022-07-29T17:08:23.383Z,16.87
2022-07-29T17:10:51.784Z,14.30
2022-07-29T17:13:19.965Z,15.27
2022-07-29T17:15:48.640Z,12.00
2022-07-29T17:18:16.957Z,12.75
2022-07-29T17:20:45.894Z,17.60
2022-07-29T17:23:15.637Z,16.23
2022-07-29T17:25:44.552Z,14.82
2022-07-29T17:28:12.525Z,13.00
2022-07-29T17:30:40.692Z,15.65
2022-07-29T17:33:08.737Z,16.73
2022-07-29T17:35:54.898Z,19.52
2022-07-29T17:38:23.290Z,14.40
2022-07-29T17:40:51.666Z,14.05
2022-07-29T17:44:09.905Z,16.55
2022-07-29T17:46:38.496Z,17.17
2022-07-29T17:49:07.328Z,12.45
2022-07-29T17:51:35.731Z,10.50
2022-07-29T17:54:04.667Z,13.75
2022-07-29T17:56:37.693Z,17.10
2022-07-29T17:59:10.819Z,13.93
2022-07-29T18:01:42.095Z,11.85
2022-07-29T18:04:11.816Z,17.10
2022-07-29T18:06:40.238Z,14.52
2022-07-29T18:09:08.628Z,13.68
2022-07-29T18:11:37.273Z,16.23
2022-07-29T18:14:07.330Z,11.48
2022-07-29T18:16:35.647Z,21.90
2022-07-29T18:19:04.370Z,17.48
2022-07-29T18:21:51.076Z,9.15
2022-07-29T18:24:21.187Z,12.73
2022-07-29T18:26:49.261Z,14.50
2022-07-29T18:29:17.771Z,13.70
2022-07-29T18:31:46.143Z,14.15
2022-07-29T18:34:14.232Z,12.90
2022-07-29T18:36:42.027Z,11.03
2022-07-29T18:39:10.185Z,13.07
2022-07-29T18:41:50.448Z,15.63
2022-07-29T18:44:23.644Z,13.07
2022-07-29T18:46:52.958Z,15.98
2022-07-29T18:49:21.508Z,17.70
2022-07-29T18:51:59.221Z,13.88
2022-07-29T18:54:31.763Z,12.32
2022-07-29T18:57:01.282Z,16.25
2022-07-29T18:59:51.969Z,14.18
2022-07-29T19:02:24.745Z,14.80
2022-07-29T19:04:53.305Z,16.52
2022-07-29T19:07:24.123Z,13.60
2022-07-29T19:09:53.731Z,14.43
2022-07-29T19:12:22.174Z,16.75
2022-07-29T19:14:50.406Z,15.33
2022-07-29T19:17:19.147Z,12.45
2022-07-29T19:19:48.846Z,14.02
2022-07-29T19:22:16.966Z,19.00
2022-07-29T19:24:46.005Z,12.77
2022-07-29T19:27:14.300Z,16.93
2022-07-29T19:29:42.221Z,12.82
2022-07-29T19:32:11.043Z,12.77
2022-07-29T19:34:39.219Z,10.82
2022-07-29T19:37:14.511Z,11.05
2022-07-29T19:39:42.542Z,9.63
2022-07-29T19:42:10.567Z,15.27
2022-07-29T19:44:38.451Z,13.25
2022-07-29T19:47:07.364Z,14.88
2022-07-29T19:49:38.126Z,12.05
2022-07-29T19:52:06.454Z,12.63
2022-07-29T19:54:34.662Z,12.45
2022-07-29T19:57:02.608Z,9.18
2022-07-29T19:59:32.050Z,10.77
2022-07-29T20:02:00.312Z,11.90
2022-07-29T20:04:28.319Z,9.70
2022-07-29T20:07:01.656Z,11.02
2022-07-29T20:09:30.484Z,9.73
2022-07-29T20:11:58.414Z,13.43
2022-07-29T20:14:26.309Z,10.13
2022-07-29T20:16:54.804Z,11.17
2022-07-29T20:19:22.653Z,11.65
2022-07-29T20:21:51.747Z,12.70
2022-07-29T20:24:20.856Z,13.70
2022-07-29T20:26:49.178Z,13.60
2022-07-29T20:29:17.562Z,14.70
2022-07-29T20:31:46.186Z,15.25
2022-07-29T20:34:24.378Z,13.82
2022-07-29T20:36:52.931Z,17.35
2022-07-29T20:39:21.554Z,14.00
2022-07-29T20:42:46.648Z,13.17
2022-07-29T20:45:15.054Z,10.25
2022-07-29T20:47:42.838Z,15.05
2022-07-29T20:50:10.996Z,14.35
2022-07-29T20:52:40.916Z,11.75
2022-07-29T20:55:09.459Z,10.23
2022-07-29T20:57:38.698Z,10.88
2022-07-29T21:00:09.454Z,11.77
2022-07-29T21:02:37.598Z,13.98
2022-07-29T21:05:06.112Z,10.85
2022-07-29T21:07:34.786Z,11.90
2022-07-29T21:10:03.367Z,13.23
2022-07-29T21:13:23.472Z,11.80
2022-07-29T21:15:52.805Z,13.23
2022-07-29T21:18:37.703Z,13.65
2022-07-29T21:21:06.116Z,8.47
2022-07-29T21:23:33.926Z,8.98
2022-07-29T21:26:02.050Z,9.13
2022-07-29T21:28:35.998Z,9.18
2022-07-29T21:31:06.486Z,11.15
2022-07-29T21:33:35.724Z,10.07
2022-07-29T21:36:26.761Z,10.82
2022-07-29T21:38:53.006Z,8.93
2022-07-29T21:41:22.190Z,10.00
2022-07-29T21:43:50.079Z,9.13
2022-07-29T21:46:18.528Z,13.00
2022-07-29T21:48:46.616Z,10.98
2022-07-29T21:51:14.396Z,12.45
2022-07-29T21:53:42.646Z,10.73
2022-07-29T21:56:14.874Z,12.30
2022-07-29T21:58:43.718Z,11.80
2022-07-29T22:01:11.557Z,12.07
2022-07-29T22:03:39.566Z,14.27
2022-07-29T22:06:07.784Z,14.88
2022-07-29T22:08:35.767Z,12.75
2022-07-29T22:11:03.461Z,15.97
2022-07-29T22:13:32.077Z,13.57
2022-07-29T22:15:59.751Z,11.45
2022-07-29T22:18:27.721Z,8.98
2022-07-29T22:20:55.947Z,9.45
2022-07-29T22:23:23.832Z,12.77
2022-07-29T22:25:51.621Z,9.75
2022-07-29T22:28:19.910Z,11.13
2022-07-29T22:30:47.727Z,11.07
2022-07-29T22:33:17.550Z,12.75
2022-07-29T22:35:48.780Z,10.00
2022-07-29T22:38:20.007Z,10.73
2022-07-29T22:40:50.680Z,13.07
2022-07-29T22:43:18.856Z,12.73
2022-07-29T22:45:46.664Z,12.73
2022-07-29T22:48:15.157Z,9.60
2022-07-29T22:50:42.898Z,10.82
2022-07-29T22:53:10.780Z,11.05
2022-07-29T22:55:38.988Z,12.45
2022-07-29T22:58:06.996Z,12.75
2022-07-29T23:00:35.006Z,10.97
2022-07-29T23:03:03.253Z,10.98
2022-07-29T23:05:31.125Z,14.93
2022-07-29T23:07:59.426Z,11.82
2022-07-29T23:10:27.714Z,10.50
2022-07-29T23:12:55.574Z,9.63
2022-07-29T23:15:23.889Z,10.05
2022-07-29T23:17:53.023Z,11.23
2022-07-29T23:20:20.970Z,11.07
2022-07-29T23:22:49.290Z,11.02
2022-07-29T23:25:17.499Z,11.57
2022-07-29T23:27:45.261Z,12.45
2022-07-29T23:30:39.288Z,10.18
2022-07-29T23:33:32.504Z,9.93
2022-07-29T23:36:00.384Z,11.82
2022-07-29T23:38:28.433Z,10.47
2022-07-29T23:40:56.419Z,13.07
2022-07-29T23:43:24.138Z,10.45
2022-07-29T23:45:53.694Z,11.85
2022-07-29T23:48:21.755Z,13.00
2022-07-29T23:50:49.586Z,15.03
2022-07-29T23:53:17.976Z,16.08
2022-07-29T23:55:46.007Z,10.88
2022-07-29T23:58:13.946Z,12.27
